createdAt,value
2022-08-20T00:02:59.039Z,52.50
2022-08-20T00:08:04.065Z,52.40
2022-08-20T00:13:11.312Z,52.90
2022-08-20T00:18:18.493Z,52.60
2022-08-20T00:23:22.604Z,52.90
2022-08-20T00:28:27.563Z,53.00
2022-08-20T00:33:31.442Z,53.00
2022-08-20T00:38:35.683Z,53.10
2022-08-20T00:43:44.617Z,52.90
2022-08-20T00:48:50.722Z,53.10
2022-08-20T00:53:57.520Z,53.20
2022-08-20T00:59:03.043Z,53.60
2022-08-20T01:04:06.888Z,53.90
2022-08-20T01:09:10.952Z,53.80
2022-08-20T01:14:25.114Z,54.10
2022-08-20T01:19:34.249Z,54.30
2022-08-20T01:24:42.048Z,54.70
2022-08-20T01:29:47.957Z,55.50
2022-08-20T01:34:51.591Z,55.30
2022-08-20T01:39:55.229Z,55.80
2022-08-20T01:45:01.716Z,56.60
2022-08-20T01:50:13.537Z,56.90
2022-08-20T01:55:17.118Z,57.20
2022-08-20T02:00:22.807Z,57.90
2022-08-20T02:05:30.690Z,58.60
2022-08-20T02:10:34.427Z,58.90
2022-08-20T02:15:42.867Z,58.60
2022-08-20T02:20:47.520Z,58.50
2022-08-20T02:25:51.469Z,58.90
2022-08-20T02:30:56.966Z,59.20
2022-08-20T02:36:00.325Z,58.90
2022-08-20T02:41:03.997Z,58.80
2022-08-20T02:46:09.201Z,59.70
2022-08-20T02:51:12.507Z,59.60
2022-08-20T02:56:16.152Z,59.90
2022-08-20T03:01:20.994Z,60.30
2022-08-20T03:06:24.581Z,60.70
2022-08-20T03:11:28.068Z,60.70
2022-08-20T03:16:33.728Z,60.90
2022-08-20T03:21:37.234Z,60.60
2022-08-20T03:26:40.651Z,60.60
2022-08-20T03:31:45.549Z,60.60
2022-08-20T03:36:48.976Z,61.00
2022-08-20T03:41:52.315Z,61.10
2022-08-20T03:46:57.025Z,61.50
2022-08-20T03:52:01.361Z,61.60
2022-08-20T03:57:12.803Z,62.20
2022-08-20T04:02:18.188Z,61.60
2022-08-20T04:07:27.014Z,61.70
2022-08-20T04:12:30.317Z,61.60
2022-08-20T04:17:35.006Z,61.80
2022-08-20T04:22:40.662Z,61.80
2022-08-20T04:27:44.800Z,61.70
2022-08-20T04:32:50.019Z,62.70
2022-08-20T04:38:01.339Z,61.50
2022-08-20T04:43:05.950Z,61.60
2022-08-20T04:48:14.987Z,61.60
2022-08-20T04:53:25.285Z,61.50
2022-08-20T04:58:33.722Z,61.40
2022-08-20T05:03:39.995Z,61.20
2022-08-20T05:08:43.506Z,61.30
2022-08-20T05:13:46.868Z,61.50
2022-08-20T05:18:52.453Z,61.30
2022-08-20T05:23:56.297Z,61.50
2022-08-20T05:28:59.681Z,61.90
2022-08-20T05:34:11.098Z,62.40
2022-08-20T05:39:15.641Z,62.90
2022-08-20T05:44:19.993Z,63.80
2022-08-20T05:49:24.690Z,64.00
2022-08-20T05:54:28.098Z,64.60
2022-08-20T05:59:31.525Z,64.70
2022-08-20T06:04:36.241Z,66.10
2022-08-20T06:09:43.520Z,65.30
2022-08-20T06:14:48.373Z,65.50
2022-08-20T06:19:53.218Z,66.40
2022-08-20T06:24:57.162Z,66.70
2022-08-20T06:30:00.867Z,66.90
2022-08-20T06:35:08.606Z,67.10
2022-08-20T06:40:15.921Z,67.40
2022-08-20T06:45:24.434Z,67.50
2022-08-20T06:50:43.136Z,67.60
2022-08-20T06:55:54.049Z,67.80
2022-08-20T07:00:57.444Z,67.70
2022-08-20T07:06:02.203Z,67.80
2022-08-20T07:11:05.668Z,68.20
2022-08-20T07:16:09.209Z,68.20
2022-08-20T07:21:13.914Z,68.30
2022-08-20T07:26:17.882Z,68.30
2022-08-20T07:31:48.190Z,68.50
2022-08-20T07:36:52.954Z,68.40
2022-08-20T07:42:03.996Z,68.70
2022-08-20T07:47:07.723Z,68.70
2022-08-20T07:52:13.257Z,68.50
2022-08-20T07:57:17.418Z,68.30
2022-08-20T08:02:21.062Z,67.80
2022-08-20T08:07:26.962Z,67.50
2022-08-20T08:12:37.689Z,67.50
2022-08-20T08:17:41.350Z,67.20
2022-08-20T08:22:46.075Z,67.40
2022-08-20T08:27:49.694Z,67.50
2022-08-20T08:33:10.843Z,67.40
2022-08-20T08:38:17.252Z,66.70
2022-08-20T08:43:21.559Z,66.50
2022-08-20T08:48:32.285Z,66.50
2022-08-20T08:53:42.171Z,66.00
2022-08-20T08:58:46.046Z,65.20
2022-08-20T09:03:51.948Z,65.00
2022-08-20T09:09:01.071Z,64.50
2022-08-20T09:14:04.551Z,64.20
2022-08-20T09:19:07.963Z,63.80
2022-08-20T09:24:12.671Z,63.90
2022-08-20T09:29:16.112Z,63.10
2022-08-20T09:34:20.284Z,62.80
2022-08-20T09:39:25.360Z,62.40
2022-08-20T09:44:28.721Z,62.20
2022-08-20T09:49:32.258Z,61.80
2022-08-20T09:54:38.402Z,61.40
2022-08-20T09:59:41.891Z,61.20
2022-08-20T10:04:45.743Z,61.20
2022-08-20T10:09:50.790Z,60.20
2022-08-20T10:14:55.709Z,59.30
2022-08-20T10:19:59.200Z,58.80
2022-08-20T10:25:04.319Z,58.80
2022-08-20T10:30:08.825Z,58.60
2022-08-20T10:35:12.174Z,58.70
2022-08-20T10:40:17.376Z,58.10
2022-08-20T10:45:20.945Z,57.60
2022-08-20T10:50:24.660Z,57.80
2022-08-20T10:55:34.879Z,57.60
2022-08-20T11:00:38.368Z,57.10
2022-08-20T11:05:41.772Z,56.10
2022-08-20T11:10:46.495Z,56.50
2022-08-20T11:15:49.851Z,56.40
2022-08-20T11:20:53.348Z,56.50
2022-08-20T11:25:58.450Z,56.60
2022-08-20T11:31:02.614Z,56.30
2022-08-20T11:36:06.409Z,56.50
2022-08-20T11:41:11.424Z,56.70
2022-08-20T11:46:14.780Z,56.80
2022-08-20T11:51:18.146Z,57.00
2022-08-20T11:56:22.937Z,57.00
2022-08-20T12:01:26.501Z,57.20
2022-08-20T12:06:31.242Z,56.60
2022-08-20T12:11:35.964Z,55.70
2022-08-20T12:16:39.912Z,55.50
2022-08-20T12:21:43.272Z,55.40
2022-08-20T12:26:48.235Z,54.90
2022-08-20T12:31:51.832Z,55.40
2022-08-20T12:37:02.740Z,55.30
2022-08-20T12:42:08.631Z,54.70
2022-08-20T12:47:14.450Z,54.30
2022-08-20T12:52:20.714Z,54.00
2022-08-20T12:57:28.784Z,53.30
2022-08-20T13:02:32.267Z,52.90
2022-08-20T13:07:36.441Z,51.90
2022-08-20T13:12:41.219Z,52.00
2022-08-20T13:17:44.851Z,50.90
2022-08-20T13:22:48.474Z,49.50
2022-08-20T13:27:58.175Z,49.20
2022-08-20T13:33:01.742Z,48.60
2022-08-20T13:38:05.173Z,48.40
2022-08-20T13:43:11.935Z,48.60
2022-08-20T13:48:15.566Z,49.30
2022-08-20T13:53:19.255Z,48.30
2022-08-20T13:58:24.737Z,46.30
2022-08-20T14:03:28.211Z,46.90
2022-08-20T14:08:31.695Z,47.40
2022-08-20T14:13:36.446Z,47.30
2022-08-20T14:18:39.821Z,46.90
2022-08-20T14:23:43.923Z,46.60
2022-08-20T14:28:48.596Z,46.30
2022-08-20T14:33:51.882Z,46.40
2022-08-20T14:38:55.492Z,46.20
2022-08-20T14:44:00.563Z,46.60
2022-08-20T14:49:08.733Z,47.60
2022-08-20T14:54:12.132Z,48.10
2022-08-20T14:59:17.106Z,48.70
2022-08-20T15:04:20.754Z,49.80
2022-08-20T15:09:24.146Z,49.50
2022-08-20T15:14:29.221Z,51.30
2022-08-20T15:19:33.627Z,51.30
2022-08-20T15:24:37.024Z,49.40
2022-08-20T15:35:05.226Z,50.10
2022-08-20T15:40:10.672Z,50.80
2022-08-20T15:45:22.251Z,52.90
2022-08-20T16:02:08.675Z,58.80
2022-08-20T16:07:18.320Z,59.80
2022-08-20T16:12:31.900Z,60.20
2022-08-20T16:24:34.841Z,62.60
2022-08-20T16:29:54.543Z,64.10
2022-08-20T16:35:02.023Z,64.50
2022-08-20T16:40:19.978Z,65.30
2022-08-20T16:45:28.399Z,66.30
2022-08-20T16:50:39.345Z,67.10
2022-08-20T16:55:44.748Z,67.90
2022-08-20T17:00:49.180Z,68.30
2022-08-20T17:05:55.878Z,69.30
2022-08-20T17:11:09.869Z,69.40
2022-08-20T17:16:21.132Z,70.20
2022-08-20T17:21:28.614Z,71.10
2022-08-20T17:26:37.621Z,71.90
2022-08-20T17:31:43.939Z,72.80
2022-08-20T17:36:55.082Z,72.90
2022-08-20T17:42:08.147Z,73.60
2022-08-20T17:47:17.335Z,74.10
2022-08-20T17:52:26.231Z,73.90
2022-08-20T17:57:38.395Z,74.10
2022-08-20T18:02:42.897Z,74.40
2022-08-20T18:08:12.666Z,74.60
2022-08-20T18:13:20.865Z,74.60
2022-08-20T18:18:32.149Z,75.00
2022-08-20T18:23:41.353Z,74.90
2022-08-20T18:28:50.399Z,74.90
2022-08-20T18:33:54.344Z,75.20
2022-08-20T18:39:04.650Z,74.90
2022-08-20T18:44:13.607Z,75.00
2022-08-20T18:49:29.435Z,75.10
2022-08-20T18:54:33.681Z,75.00
2022-08-20T18:59:46.253Z,74.80
2022-08-20T19:04:54.002Z,75.00
2022-08-20T19:10:28.131Z,75.40
2022-08-20T19:15:39.174Z,75.30
2022-08-20T19:20:55.549Z,75.70
2022-08-20T19:26:02.850Z,76.20
2022-08-20T19:31:13.713Z,75.60
2022-08-20T19:36:19.392Z,75.70
2022-08-20T19:41:31.014Z,75.60
2022-08-20T19:46:39.248Z,75.70
2022-08-20T19:51:54.501Z,75.70
2022-08-20T19:56:58.959Z,75.80
2022-08-20T20:02:20.480Z,76.00
2022-08-20T20:07:27.761Z,75.90
2022-08-20T20:12:34.588Z,75.80
2022-08-20T20:17:39.392Z,75.80
2022-08-20T20:22:51.544Z,76.00
2022-08-20T20:27:57.642Z,76.10
2022-08-20T20:33:12.087Z,76.10
2022-08-20T20:38:26.363Z,76.50
2022-08-20T20:43:32.951Z,76.50
2022-08-20T20:48:48.334Z,76.50
2022-08-20T20:53:55.106Z,76.70
2022-08-20T20:59:02.563Z,76.80
2022-08-20T21:04:10.368Z,76.90
2022-08-20T21:09:13.790Z,76.80
2022-08-20T21:14:17.784Z,77.00
2022-08-20T21:19:22.765Z,77.40
2022-08-20T21:24:26.398Z,77.50
2022-08-20T21:29:32.878Z,77.70
2022-08-20T21:34:38.212Z,77.80
2022-08-20T21:39:42.140Z,77.60
2022-08-20T21:44:47.925Z,78.10
2022-08-20T21:49:54.760Z,78.30
2022-08-20T21:54:58.405Z,78.10
2022-08-20T22:00:07.066Z,79.20
2022-08-20T22:05:12.401Z,78.40
2022-08-20T22:10:15.782Z,78.50
2022-08-20T22:15:19.296Z,78.80
2022-08-20T22:20:24.278Z,78.70
2022-08-20T22:25:28.181Z,78.40
2022-08-20T22:30:31.981Z,78.60
2022-08-20T22:35:37.257Z,78.90
2022-08-20T22:40:40.920Z,79.00
2022-08-20T22:45:46.692Z,79.30
2022-08-20T22:50:52.239Z,79.30
2022-08-20T22:55:56.082Z,78.70
2022-08-20T23:01:04.885Z,78.60
2022-08-20T23:06:10.785Z,78.60
2022-08-20T23:11:14.218Z,78.70
2022-08-20T23:16:17.626Z,78.90
2022-08-20T23:21:22.669Z,79.00
2022-08-20T23:26:26.157Z,79.30
2022-08-20T23:31:29.708Z,79.10
2022-08-20T23:36:36.129Z,79.00
2022-08-20T23:41:45.411Z,79.10
2022-08-20T23:46:51.897Z,79.00
2022-08-20T23:52:00.730Z,79.00
2022-08-20T23:57:08.401Z,79.30
